Time;durP1;ratioP1;P1;durP2;ratioP2;P2;SDS_P1;SDS_P2;PMS_P1;PMS_P2;Temp;Humidity;BMP_temperature;BMP_pressure;BME280_temperature;BME280_humidity;BME280_pressure;Samples;Min_cycle;Max_cycle;Signal;HPM_P1;HPM_P2
2024/03/16 00:00:43;;;;;;;0.40;0.40;;;9.90;99.90;;;;;;5086170;28;20177;-79
2024/03/16 00:03:09;;;;;;;0.40;0.20;;;9.80;99.90;;;;;;5084943;28;20188;-74
2024/03/16 00:05:36;;;;;;;0.30;0.20;;;9.80;99.90;;;;;;5086075;28;20172;-75
2024/03/16 00:08:02;;;;;;;1.85;1.75;;;9.80;99.90;;;;;;5084496;28;20799;-80
2024/03/16 00:10:28;;;;;;;1.02;1.02;;;9.70;99.90;;;;;;5085978;28;20181;-75
2024/03/16 00:12:54;;;;;;;0.30;0.20;;;9.70;99.90;;;;;;5085805;28;20246;-75
2024/03/16 00:15:20;;;;;;;0.30;0.20;;;9.70;99.90;;;;;;5085884;28;20201;-79
2024/03/16 00:17:46;;;;;;;0.45;0.43;;;9.60;99.90;;;;;;5085666;28;20724;-80
2024/03/16 00:20:12;;;;;;;0.30;0.20;;;9.60;99.90;;;;;;5085803;28;20180;-80
2024/03/16 00:22:38;;;;;;;0.30;0.20;;;9.60;99.90;;;;;;5085680;28;20197;-80
2024/03/16 00:25:06;;;;;;;0.30;0.20;;;9.50;99.90;;;;;;5085818;28;20813;-75
2024/03/16 00:27:33;;;;;;;0.30;0.20;;;9.50;99.90;;;;;;5085344;28;20192;-77
2024/03/16 00:30:04;;;;;;;0.30;0.20;;;9.50;99.90;;;;;;5085659;28;20182;-79
2024/03/16 00:32:29;;;;;;;0.30;0.20;;;9.40;99.90;;;;;;5085127;28;20346;-79
2024/03/16 00:34:55;;;;;;;0.30;0.20;;;9.40;99.90;;;;;;5084236;28;20639;-74
2024/03/16 00:37:21;;;;;;;1.50;1.50;;;9.40;99.90;;;;;;5083790;28;20457;-78
2024/03/16 00:39:46;;;;;;;0.30;0.20;;;9.40;99.90;;;;;;5085727;28;20790;-74
2024/03/16 00:42:12;;;;;;;0.30;0.20;;;9.30;99.90;;;;;;5085273;28;20641;-78
2024/03/16 00:44:39;;;;;;;0.30;0.20;;;9.30;99.90;;;;;;5085825;28;20622;-74
2024/03/16 00:47:05;;;;;;;0.30;0.20;;;9.30;99.90;;;;;;5085294;28;20259;-74
2024/03/16 00:49:30;;;;;;;1.80;1.70;;;9.30;99.90;;;;;;5083878;28;20318;-79
2024/03/16 00:51:57;;;;;;;0.30;0.20;;;9.30;99.90;;;;;;5085108;28;20419;-75
2024/03/16 00:54:23;;;;;;;0.30;0.20;;;9.20;99.90;;;;;;5084002;28;20440;-75
2024/03/16 00:56:51;;;;;;;0.30;0.20;;;9.20;99.90;;;;;;5083962;28;20420;-78
2024/03/16 00:59:17;;;;;;;0.30;0.20;;;9.20;99.90;;;;;;5085380;28;20988;-74
2024/03/16 01:01:43;;;;;;;10.52;10.07;;;9.20;99.90;;;;;;5083931;28;20250;-74
2024/03/16 01:04:09;;;;;;;0.30;0.20;;;9.20;99.90;;;;;;5085469;28;20614;-78
2024/03/16 01:06:35;;;;;;;0.50;0.50;;;9.20;99.90;;;;;;5083112;28;20184;-79
2024/03/16 01:09:00;;;;;;;0.30;0.30;;;9.10;99.90;;;;;;5085173;28;20446;-79
2024/03/16 01:11:26;;;;;;;0.30;0.20;;;9.10;99.90;;;;;;5084799;28;20195;-79
2024/03/16 01:13:52;;;;;;;0.30;0.20;;;9.10;99.90;;;;;;5085209;28;20196;-74
2024/03/16 01:16:18;;;;;;;0.30;0.20;;;9.20;99.90;;;;;;5083316;28;20949;-74
2024/03/16 01:18:44;;;;;;;0.40;0.40;;;9.10;99.90;;;;;;5084038;28;20232;-74
2024/03/16 01:21:10;;;;;;;0.30;0.20;;;9.20;99.90;;;;;;5084737;28;20930;-79
2024/03/16 01:23:37;;;;;;;0.30;0.20;;;9.20;99.90;;;;;;5083815;28;20577;-74
2024/03/16 01:26:07;;;;;;;3.00;2.85;;;9.20;99.90;;;;;;5084985;28;20181;-79
2024/03/16 01:28:33;;;;;;;0.30;0.20;;;9.20;99.90;;;;;;5088756;28;20208;-77
2024/03/16 01:30:59;;;;;;;0.30;0.20;;;9.20;99.90;;;;;;5088534;28;20189;-78
2024/03/16 01:33:28;;;;;;;1.35;1.35;;;9.20;99.90;;;;;;5088939;28;20842;-78
2024/03/16 01:35:54;;;;;;;0.35;0.32;;;9.20;99.90;;;;;;5087343;28;20229;-77
2024/03/16 01:38:20;;;;;;;0.30;0.20;;;9.20;99.90;;;;;;5087075;28;20410;-78
2024/03/16 01:40:46;;;;;;;0.30;0.20;;;9.20;99.90;;;;;;5089110;28;20644;-80
2024/03/16 01:43:13;;;;;;;0.30;0.20;;;9.20;99.90;;;;;;5087309;28;20204;-75
2024/03/16 01:45:40;;;;;;;0.77;0.77;;;9.30;99.90;;;;;;5088700;28;20463;-74
2024/03/16 01:48:10;;;;;;;2.35;2.25;;;9.30;99.90;;;;;;5088058;28;20222;-74
2024/03/16 01:50:37;;;;;;;0.30;0.20;;;9.30;99.90;;;;;;5089075;28;20207;-78
2024/03/16 01:53:04;;;;;;;0.30;0.20;;;9.30;99.90;;;;;;5088415;28;20292;-78
2024/03/16 01:55:33;;;;;;;0.30;0.20;;;9.30;99.90;;;;;;5088570;28;20180;-78
2024/03/16 01:57:59;;;;;;;0.30;0.20;;;9.40;99.90;;;;;;5086790;28;20200;-78
2024/03/16 02:00:26;;;;;;;0.30;0.20;;;9.40;99.90;;;;;;5088453;28;20177;-79
2024/03/16 02:02:54;;;;;;;0.30;0.20;;;9.40;99.90;;;;;;5088533;28;20193;-75
2024/03/16 02:05:20;;;;;;;0.30;0.20;;;9.50;99.90;;;;;;5088205;28;20169;-74
2024/03/16 02:07:48;;;;;;;0.97;0.97;;;9.40;99.90;;;;;;5087404;28;20207;-74
2024/03/16 02:10:15;;;;;;;0.30;0.20;;;9.50;99.90;;;;;;5087928;28;20421;-74
2024/03/16 02:12:42;;;;;;;0.82;0.82;;;9.50;99.90;;;;;;5088219;28;20555;-79
2024/03/16 02:15:08;;;;;;;0.30;0.20;;;9.50;99.90;;;;;;5088162;28;20185;-78
2024/03/16 02:17:34;;;;;;;0.30;0.20;;;9.50;99.90;;;;;;5086492;28;20232;-74
2024/03/16 02:20:03;;;;;;;0.30;0.20;;;9.50;99.90;;;;;;5088134;28;20232;-74
2024/03/16 02:22:29;;;;;;;1.58;1.25;;;9.40;99.90;;;;;;5086519;28;20193;-74
2024/03/16 02:24:55;;;;;;;0.30;0.20;;;9.50;99.90;;;;;;5088196;28;20414;-78
2024/03/16 02:27:21;;;;;;;1.60;1.50;;;9.50;99.90;;;;;;5086031;28;20176;-74
2024/03/16 02:29:47;;;;;;;0.30;0.20;;;9.50;99.90;;;;;;5087981;28;20608;-74
2024/03/16 02:32:14;;;;;;;1.50;1.43;;;9.50;99.90;;;;;;5087439;28;20376;-74
2024/03/16 02:34:40;;;;;;;0.40;0.40;;;9.50;99.90;;;;;;5086671;28;20929;-79
2024/03/16 02:37:08;;;;;;;0.30;0.20;;;9.50;99.90;;;;;;5087724;28;20757;-79
2024/03/16 02:39:34;;;;;;;0.40;0.30;;;9.50;99.90;;;;;;5086570;28;20226;-74
2024/03/16 02:42:02;;;;;;;0.30;0.30;;;9.60;99.90;;;;;;5086055;28;20305;-79
2024/03/16 02:44:29;;;;;;;0.30;0.20;;;9.60;99.90;;;;;;5087146;28;20219;-79
2024/03/16 02:46:56;;;;;;;0.30;0.20;;;9.60;99.90;;;;;;5087662;28;20225;-79
2024/03/16 02:49:22;;;;;;;0.30;0.20;;;9.60;99.90;;;;;;5085979;28;20674;-74
2024/03/16 02:51:48;;;;;;;0.30;0.20;;;9.60;99.90;;;;;;5085945;28;20191;-79
2024/03/16 02:54:14;;;;;;;0.30;0.30;;;9.60;99.90;;;;;;5087697;28;20192;-74
2024/03/16 02:56:40;;;;;;;0.30;0.20;;;9.60;99.90;;;;;;5087466;28;20911;-74
2024/03/16 02:59:06;;;;;;;0.30;0.20;;;9.60;99.90;;;;;;5087274;28;20302;-78
2024/03/16 03:01:32;;;;;;;0.30;0.20;;;9.60;99.90;;;;;;5087472;28;20429;-74
2024/03/16 03:03:57;;;;;;;3.80;3.50;;;9.60;99.90;;;;;;5085935;28;20400;-78
2024/03/16 03:06:27;;;;;;;0.30;0.20;;;9.60;99.90;;;;;;5086528;28;20532;-77
2024/03/16 03:08:53;;;;;;;0.30;0.20;;;9.60;99.90;;;;;;5085917;28;20285;-74
2024/03/16 03:11:20;;;;;;;0.75;0.75;;;9.60;99.90;;;;;;5085205;28;20204;-78
2024/03/16 03:13:47;;;;;;;0.30;0.20;;;9.50;99.90;;;;;;5085908;28;20192;-79
2024/03/16 03:16:18;;;;;;;0.30;0.20;;;9.50;99.90;;;;;;5085202;28;20267;-79
2024/03/16 03:18:46;;;;;;;0.30;0.20;;;9.50;99.90;;;;;;5087271;28;20234;-74
2024/03/16 03:21:12;;;;;;;2.95;2.85;;;9.40;99.90;;;;;;5086846;28;20226;-74
2024/03/16 03:23:38;;;;;;;0.30;0.30;;;9.40;99.90;;;;;;5086842;28;20559;-78
2024/03/16 03:26:03;;;;;;;0.30;0.20;;;9.40;99.90;;;;;;5085192;28;20236;-74
2024/03/16 03:28:29;;;;;;;0.30;0.20;;;9.40;99.90;;;;;;5086223;28;20216;-74
2024/03/16 03:30:54;;;;;;;0.30;0.20;;;9.40;99.90;;;;;;5086540;28;20187;-78
2024/03/16 03:33:20;;;;;;;0.83;0.83;;;9.30;99.90;;;;;;5085333;28;20224;-74
2024/03/16 03:35:46;;;;;;;0.30;0.20;;;9.30;99.90;;;;;;5085179;28;20614;-78
2024/03/16 03:38:11;;;;;;;0.30;0.20;;;9.20;99.90;;;;;;5086464;28;20256;-79
2024/03/16 03:40:37;;;;;;;0.30;0.20;;;9.20;99.90;;;;;;5085235;28;20260;-78
2024/03/16 03:43:05;;;;;;;0.53;0.50;;;9.10;99.90;;;;;;5086140;28;20555;-79
2024/03/16 03:48:25;;;;;;;0.30;0.20;;;9.00;99.90;;;;;;5085951;28;20748;-79
2024/03/16 03:50:54;;;;;;;0.30;0.20;;;9.00;99.90;;;;;;5086284;28;20208;-74
2024/03/16 03:53:21;;;;;;;0.30;0.20;;;9.00;99.90;;;;;;5086313;28;20227;-79
2024/03/16 03:55:47;;;;;;;0.77;0.75;;;8.90;99.90;;;;;;5084772;28;20238;-78
2024/03/16 03:58:13;;;;;;;0.30;0.20;;;8.90;99.90;;;;;;5084486;28;20196;-79
2024/03/16 04:00:39;;;;;;;0.30;0.30;;;8.90;99.90;;;;;;5086416;28;20647;-78
2024/03/16 04:03:06;;;;;;;0.30;0.20;;;8.90;99.90;;;;;;5086142;28;20556;-74
2024/03/16 04:05:33;;;;;;;0.30;0.20;;;8.90;99.90;;;;;;5086446;28;20957;-74
2024/03/16 04:07:59;;;;;;;0.30;0.20;;;8.80;99.90;;;;;;5085822;28;20261;-78
2024/03/16 04:10:25;;;;;;;0.30;0.20;;;8.80;99.90;;;;;;5085725;28;20212;-79
2024/03/16 04:12:50;;;;;;;0.40;0.20;;;8.70;99.90;;;;;;5085877;28;20285;-74
2024/03/16 04:15:16;;;;;;;0.30;0.20;;;8.70;99.90;;;;;;5086208;28;20634;-78
2024/03/16 04:17:42;;;;;;;0.38;0.20;;;8.60;99.90;;;;;;5085685;28;20232;-74
2024/03/16 04:20:10;;;;;;;0.30;0.20;;;8.60;99.90;;;;;;5085956;28;20297;-74
2024/03/16 04:22:39;;;;;;;0.30;0.20;;;8.60;99.90;;;;;;5085675;28;20551;-73
2024/03/16 04:25:09;;;;;;;0.30;0.20;;;8.50;99.90;;;;;;5085753;28;20267;-74
2024/03/16 04:27:35;;;;;;;0.30;0.20;;;8.50;99.90;;;;;;5083902;28;20224;-74
2024/03/16 04:30:02;;;;;;;0.30;0.20;;;8.50;99.90;;;;;;5085745;28;20187;-73
2024/03/16 04:32:28;;;;;;;0.30;0.20;;;8.50;99.90;;;;;;5085411;28;20677;-78
2024/03/16 04:34:54;;;;;;;0.33;0.30;;;8.50;99.90;;;;;;5085797;28;20184;-74
2024/03/16 04:37:20;;;;;;;0.30;0.20;;;8.50;99.90;;;;;;5085084;28;20238;-79
2024/03/16 04:39:46;;;;;;;0.30;0.20;;;8.50;99.90;;;;;;5085692;28;20569;-74
2024/03/16 04:42:12;;;;;;;0.30;0.20;;;8.50;99.90;;;;;;5083674;28;20180;-79
2024/03/16 04:44:38;;;;;;;0.30;0.20;;;8.50;99.90;;;;;;5085563;28;20177;-78
2024/03/16 04:47:04;;;;;;;0.33;0.30;;;8.50;99.90;;;;;;5085260;28;20660;-74
2024/03/16 04:49:30;;;;;;;0.30;0.20;;;8.50;99.90;;;;;;5083547;28;20212;-74
2024/03/16 04:51:56;;;;;;;0.63;0.63;;;8.50;99.90;;;;;;5083773;28;20203;-74
2024/03/16 04:54:23;;;;;;;0.40;0.35;;;8.60;99.90;;;;;;5085249;28;20230;-78
2024/03/16 04:56:49;;;;;;;0.30;0.20;;;8.60;99.90;;;;;;5083724;28;20184;-74
2024/03/16 04:59:14;;;;;;;0.30;0.20;;;8.60;99.90;;;;;;5085374;28;20688;-74
2024/03/16 05:01:40;;;;;;;0.50;0.50;;;8.60;99.90;;;;;;5085702;28;20180;-78
2024/03/16 05:04:07;;;;;;;0.30;0.20;;;8.60;99.90;;;;;;5089396;28;20192;-79
2024/03/16 05:06:34;;;;;;;0.30;0.20;;;8.60;99.90;;;;;;5089624;28;20183;-79
2024/03/16 05:09:04;;;;;;;0.30;0.20;;;8.60;99.90;;;;;;5087362;28;20704;-74
2024/03/16 05:11:30;;;;;;;0.30;0.30;;;8.70;99.90;;;;;;5087707;28;20226;-74
2024/03/16 05:13:58;;;;;;;1.70;1.70;;;8.70;99.90;;;;;;5089386;28;20686;-74
2024/03/16 05:16:23;;;;;;;0.30;0.20;;;8.70;99.90;;;;;;5089310;28;20433;-78
2024/03/16 05:18:49;;;;;;;0.30;0.20;;;8.70;99.90;;;;;;5089004;28;20230;-74
2024/03/16 05:21:15;;;;;;;0.30;0.20;;;8.70;99.90;;;;;;5087646;28;20180;-78
2024/03/16 05:23:45;;;;;;;0.30;0.20;;;8.70;99.90;;;;;;5088012;28;20279;-74
2024/03/16 05:26:11;;;;;;;0.38;0.35;;;8.80;99.90;;;;;;5088735;28;20260;-78
2024/03/16 05:28:38;;;;;;;0.30;0.20;;;8.80;99.90;;;;;;5089046;28;20208;-77
2024/03/16 05:31:05;;;;;;;0.30;0.20;;;8.80;99.90;;;;;;5087818;28;20267;-79
2024/03/16 05:33:30;;;;;;;0.30;0.20;;;8.80;99.90;;;;;;5089001;28;20202;-79
2024/03/16 05:35:57;;;;;;;0.30;0.20;;;8.80;99.90;;;;;;5089001;28;20188;-74
2024/03/16 05:38:23;;;;;;;0.60;0.60;;;8.90;99.90;;;;;;5088739;28;20196;-74
2024/03/16 05:40:49;;;;;;;2.00;1.90;;;8.90;99.90;;;;;;5088761;28;20210;-74
2024/03/16 05:43:15;;;;;;;0.30;0.20;;;8.90;99.90;;;;;;5087208;28;20432;-74
2024/03/16 05:45:41;;;;;;;0.30;0.20;;;8.90;99.90;;;;;;5088678;28;20336;-79
2024/03/16 05:48:07;;;;;;;0.30;0.30;;;9.00;99.90;;;;;;5088350;28;20204;-78
2024/03/16 05:50:33;;;;;;;0.30;0.20;;;9.00;99.90;;;;;;5087351;28;20180;-74
2024/03/16 05:52:59;;;;;;;0.30;0.20;;;9.00;99.90;;;;;;5088404;28;20519;-79
2024/03/16 05:55:25;;;;;;;1.03;1.03;;;9.00;99.90;;;;;;5088481;28;20263;-79
2024/03/16 05:57:51;;;;;;;1.23;1.23;;;9.00;99.90;;;;;;5088446;28;20193;-74
2024/03/16 06:00:19;;;;;;;0.30;0.20;;;9.10;99.90;;;;;;5088590;28;20643;-79
2024/03/16 06:02:45;;;;;;;0.30;0.20;;;9.10;99.90;;;;;;5088267;28;20191;-74
2024/03/16 06:05:11;;;;;;;0.30;0.20;;;9.10;99.90;;;;;;5088780;28;20176;-78
2024/03/16 06:07:37;;;;;;;0.63;0.63;;;9.10;99.90;;;;;;5086552;28;20204;-79
2024/03/16 06:10:03;;;;;;;0.30;0.30;;;9.20;99.90;;;;;;5086615;28;20654;-74
2024/03/16 06:12:30;;;;;;;9.43;8.83;;;9.20;99.90;;;;;;5087143;28;20192;-78
2024/03/16 06:14:57;;;;;;;12.88;11.77;;;9.30;99.90;;;;;;5088525;28;20432;-74
2024/03/16 06:17:23;;;;;;;0.30;0.20;;;9.40;99.90;;;;;;5086350;28;20232;-79
2024/03/16 06:19:50;;;;;;;0.43;0.30;;;9.40;99.90;;;;;;5087094;28;20656;-74
2024/03/16 06:22:16;;;;;;;0.43;0.40;;;9.50;99.90;;;;;;5086415;28;20178;-78
2024/03/16 06:24:42;;;;;;;0.52;0.52;;;9.50;99.90;;;;;;5088080;28;20196;-78
2024/03/16 06:27:10;;;;;;;0.30;0.20;;;9.50;99.90;;;;;;5086488;28;20550;-79
2024/03/16 06:29:36;;;;;;;0.40;0.40;;;9.60;99.90;;;;;;5087777;28;20513;-79
2024/03/16 06:32:08;;;;;;;0.70;0.70;;;9.60;99.90;;;;;;5086346;28;20597;-79
2024/03/16 06:34:34;;;;;;;0.30;0.20;;;9.70;99.90;;;;;;5087972;28;20470;-74
2024/03/16 06:37:01;;;;;;;0.30;0.30;;;9.70;99.90;;;;;;5087641;28;20532;-78
2024/03/16 06:39:27;;;;;;;3.10;3.00;;;9.80;99.90;;;;;;5087589;28;20439;-74
2024/03/16 06:41:53;;;;;;;2.30;2.20;;;9.90;99.90;;;;;;5087372;28;20222;-74
2024/03/16 06:44:18;;;;;;;0.30;0.20;;;9.90;99.90;;;;;;5087228;28;20201;-74
2024/03/16 06:46:44;;;;;;;0.30;0.20;;;10.00;99.90;;;;;;5087408;28;20579;-77
2024/03/16 06:49:10;;;;;;;1.13;1.05;;;10.00;99.90;;;;;;5086509;28;20208;-74
2024/03/16 06:51:36;;;;;;;0.30;0.20;;;10.10;99.90;;;;;;5086768;28;20179;-79
2024/03/16 06:54:03;;;;;;;1.37;1.27;;;10.10;99.90;;;;;;5087339;28;20666;-77
2024/03/16 06:56:29;;;;;;;0.40;0.20;;;10.20;99.90;;;;;;5085693;28;20578;-74
2024/03/16 06:58:55;;;;;;;0.30;0.20;;;10.20;99.90;;;;;;5087614;28;20196;-78
2024/03/16 07:01:24;;;;;;;0.30;0.20;;;10.20;99.90;;;;;;5086986;28;20562;-74
2024/03/16 07:03:49;;;;;;;0.30;0.20;;;10.20;99.90;;;;;;5085825;28;20237;-79
2024/03/16 07:06:15;;;;;;;0.37;0.20;;;10.30;99.90;;;;;;5085106;28;20375;-78
2024/03/16 07:08:41;;;;;;;0.30;0.20;;;10.40;99.90;;;;;;5083892;28;20212;-74
2024/03/16 07:11:06;;;;;;;0.50;0.50;;;10.40;99.90;;;;;;5085109;28;20168;-74
2024/03/16 07:13:32;;;;;;;0.30;0.20;;;10.40;99.90;;;;;;5085012;28;20196;-74
2024/03/16 07:15:58;;;;;;;0.70;0.70;;;10.50;99.90;;;;;;5084482;28;20265;-79
2024/03/16 07:18:24;;;;;;;0.40;0.40;;;10.70;99.90;;;;;;5086328;28;20452;-79
2024/03/16 07:20:50;;;;;;;0.30;0.20;;;10.80;99.90;;;;;;5079212;28;20392;-74
2024/03/16 07:23:16;;;;;;;0.40;0.40;;;10.90;99.90;;;;;;5079886;28;20209;-79
2024/03/16 07:25:41;;;;;;;2.80;2.60;;;11.00;99.90;;;;;;5085474;28;20191;-79
2024/03/16 07:28:11;;;;;;;0.30;0.30;;;11.00;99.90;;;;;;5085546;28;20579;-75
2024/03/16 07:30:37;;;;;;;0.30;0.20;;;11.10;99.90;;;;;;5087119;28;20168;-74
2024/03/16 07:33:03;;;;;;;1.87;1.77;;;11.10;99.90;;;;;;5084095;28;20200;-75
2024/03/16 07:35:29;;;;;;;1.13;1.13;;;11.20;99.90;;;;;;5086837;28;20593;-75
2024/03/16 07:37:57;;;;;;;3.13;2.40;;;11.30;99.90;;;;;;5084826;28;20227;-75
2024/03/16 07:40:23;;;;;;;0.30;0.20;;;11.40;99.90;;;;;;5085120;28;20238;-74
2024/03/16 07:42:49;;;;;;;0.82;0.82;;;11.50;99.90;;;;;;5083712;28;20552;-79
2024/03/16 07:45:15;;;;;;;0.30;0.20;;;11.60;99.90;;;;;;5077247;28;20634;-75
2024/03/16 07:47:41;;;;;;;0.30;0.20;;;11.70;99.90;;;;;;5067041;28;20193;-81
2024/03/16 07:50:07;;;;;;;0.60;0.60;;;11.80;99.90;;;;;;5081033;28;20439;-75
2024/03/16 07:52:34;;;;;;;0.30;0.20;;;11.90;99.90;;;;;;5075634;28;20204;-75
2024/03/16 07:55:00;;;;;;;0.40;0.20;;;12.00;99.90;;;;;;5081274;28;20428;-79
2024/03/16 07:57:29;;;;;;;3.83;3.60;;;12.10;99.90;;;;;;5075676;28;20826;-75
2024/03/16 07:59:55;;;;;;;0.30;0.20;;;12.10;99.90;;;;;;5078691;28;20425;-75
2024/03/16 08:02:20;;;;;;;2.53;2.43;;;12.10;99.90;;;;;;5064698;28;20421;-79
2024/03/16 08:04:46;;;;;;;0.40;0.30;;;12.10;99.90;;;;;;5066285;28;20540;-76
2024/03/16 08:07:12;;;;;;;0.40;0.33;;;12.20;99.90;;;;;;5075255;28;20348;-78
2024/03/16 08:09:38;;;;;;;3.33;3.10;;;12.20;99.90;;;;;;5065055;28;20526;-79
2024/03/16 08:12:04;;;;;;;0.30;0.20;;;12.30;99.90;;;;;;5075318;28;20183;-75
2024/03/16 08:14:34;;;;;;;0.40;0.30;;;12.40;99.90;;;;;;5084728;28;20677;-78
2024/03/16 08:17:03;;;;;;;0.30;0.20;;;12.40;99.90;;;;;;5084667;28;21007;-80
2024/03/16 08:19:30;;;;;;;0.40;0.40;;;12.50;99.90;;;;;;5083794;28;20447;-76
2024/03/16 08:21:56;;;;;;;1.03;1.03;;;12.60;99.90;;;;;;5079306;28;20435;-80
2024/03/16 08:24:21;;;;;;;0.30;0.20;;;12.60;99.90;;;;;;5083169;28;20437;-80
2024/03/16 08:26:47;;;;;;;0.30;0.20;;;12.70;99.90;;;;;;5085096;28;20458;-81
2024/03/16 08:29:14;;;;;;;1.90;1.80;;;12.80;99.90;;;;;;5085707;28;20240;-76
2024/03/16 08:31:40;;;;;;;0.67;0.67;;;12.90;99.90;;;;;;5072805;28;20185;-76
2024/03/16 08:34:05;;;;;;;3.23;1.50;;;13.00;99.90;;;;;;5064913;28;20432;-75
2024/03/16 08:36:31;;;;;;;0.43;0.43;;;13.20;99.90;;;;;;5064763;28;20642;-79
2024/03/16 08:38:57;;;;;;;0.30;0.20;;;13.30;99.90;;;;;;5063328;28;20212;-79
2024/03/16 08:41:23;;;;;;;0.37;0.20;;;13.40;99.90;;;;;;5062248;28;20193;-76
2024/03/16 08:43:49;;;;;;;0.30;0.20;;;13.40;99.90;;;;;;5063703;28;20213;-81
2024/03/16 08:46:14;;;;;;;3.23;3.03;;;13.40;99.90;;;;;;5064519;28;20864;-80
2024/03/16 08:48:40;;;;;;;1.67;1.60;;;13.50;99.90;;;;;;5062141;28;20489;-76
2024/03/16 08:51:06;;;;;;;2.37;2.20;;;13.50;99.90;;;;;;5060610;28;20284;-76
2024/03/16 08:53:31;;;;;;;0.30;0.23;;;13.50;99.90;;;;;;5065517;28;20268;-80
2024/03/16 08:55:59;;;;;;;0.40;0.20;;;13.50;99.90;;;;;;5078701;28;20188;-76
2024/03/16 08:58:25;;;;;;;1.73;1.53;;;13.50;99.90;;;;;;5081189;28;20659;-76
2024/03/16 09:00:54;;;;;;;0.30;0.20;;;13.60;99.90;;;;;;5062276;28;20421;-76
2024/03/16 09:03:22;;;;;;;0.40;0.27;;;13.60;99.90;;;;;;5080576;28;20479;-76
2024/03/16 09:05:48;;;;;;;0.30;0.30;;;13.50;99.90;;;;;;5084312;28;20466;-76
2024/03/16 09:08:13;;;;;;;1.23;1.23;;;13.40;99.90;;;;;;5083230;28;20468;-80
2024/03/16 09:10:39;;;;;;;0.30;0.20;;;13.40;99.90;;;;;;5076106;28;20188;-81
2024/03/16 09:13:05;;;;;;;2.10;2.00;;;13.50;99.90;;;;;;5084032;28;20746;-81
2024/03/16 09:15:31;;;;;;;0.73;0.73;;;13.50;99.90;;;;;;5085080;28;20180;-76
2024/03/16 09:17:57;;;;;;;0.57;0.53;;;13.40;99.90;;;;;;5083727;28;20472;-81
2024/03/16 09:20:22;;;;;;;1.40;1.33;;;13.40;99.90;;;;;;5083420;28;20763;-76
2024/03/16 09:22:49;;;;;;;0.93;0.93;;;13.30;99.90;;;;;;5080891;28;20562;-81
2024/03/16 09:25:15;;;;;;;1.03;0.93;;;13.30;99.90;;;;;;5072629;28;20576;-81
2024/03/16 09:27:40;;;;;;;1.77;1.67;;;13.30;99.90;;;;;;5072235;28;20430;-81
2024/03/16 09:30:08;;;;;;;2.40;2.30;;;13.30;99.90;;;;;;5073314;28;20581;-81
2024/03/16 09:32:35;;;;;;;0.40;0.40;;;13.40;99.90;;;;;;5062902;28;20196;-76
2024/03/16 09:35:01;;;;;;;1.60;1.50;;;13.40;99.90;;;;;;5064503;28;20475;-76
2024/03/16 09:37:26;;;;;;;1.90;1.80;;;13.40;99.90;;;;;;5074641;28;20452;-80
2024/03/16 09:39:52;;;;;;;0.30;0.30;;;13.30;99.90;;;;;;5077526;28;20479;-81
2024/03/16 09:42:21;;;;;;;2.23;2.10;;;13.30;99.90;;;;;;5062533;28;20173;-76
2024/03/16 09:44:48;;;;;;;1.60;1.50;;;13.30;99.90;;;;;;5061240;28;20655;-75
2024/03/16 09:47:16;;;;;;;0.30;0.20;;;13.30;99.90;;;;;;5076525;28;20453;-80
2024/03/16 09:49:42;;;;;;;0.93;0.93;;;13.30;99.90;;;;;;5095020;28;20467;-76
2024/03/16 09:52:13;;;;;;;0.67;0.67;;;13.30;99.90;;;;;;5094652;28;20405;-76
2024/03/16 09:54:41;;;;;;;1.07;1.07;;;13.30;99.90;;;;;;5089896;28;20519;-80
2024/03/16 09:57:17;;;;;;;0.50;0.30;;;13.40;99.90;;;;;;5088630;28;20401;-81
2024/03/16 09:59:48;;;;;;;0.30;0.30;;;13.40;99.90;;;;;;5081299;28;20755;-81
2024/03/16 10:02:23;;;;;;;2.97;2.80;;;13.50;99.90;;;;;;5075284;28;20409;-76
2024/03/16 10:04:49;;;;;;;1.30;1.30;;;13.50;99.90;;;;;;5077172;28;20778;-81
2024/03/16 10:07:15;;;;;;;0.40;0.30;;;13.40;99.90;;;;;;5079558;28;20398;-76
2024/03/16 10:09:54;;;;;;;0.30;0.20;;;13.40;99.90;;;;;;5090192;28;20488;-80
2024/03/16 10:12:23;;;;;;;0.40;0.40;;;13.30;99.90;;;;;;5094423;28;20406;-76
2024/03/16 10:15:09;;;;;;;0.93;0.93;;;13.40;99.90;;;;;;5093609;28;20436;-80
2024/03/16 10:17:38;;;;;;;3.70;3.60;;;13.40;99.90;;;;;;5095600;28;20842;-76
2024/03/16 10:20:17;;;;;;;0.30;0.20;;;13.40;99.90;;;;;;5096505;28;20424;-76
2024/03/16 10:22:44;;;;;;;0.40;0.40;;;13.40;99.90;;;;;;5092257;28;20439;-80
2024/03/16 10:25:10;;;;;;;0.30;0.27;;;13.40;99.90;;;;;;5090600;28;20448;-80
2024/03/16 10:27:39;;;;;;;0.30;0.30;;;13.40;99.90;;;;;;5093832;28;21004;-81
2024/03/16 10:30:14;;;;;;;0.40;0.40;;;13.40;99.90;;;;;;5078378;28;20474;-76
2024/03/16 10:32:46;;;;;;;0.30;0.27;;;13.40;99.90;;;;;;5074913;28;20489;-81
2024/03/16 10:35:14;;;;;;;3.33;3.23;;;13.50;99.90;;;;;;5097225;28;20468;-76
2024/03/16 10:37:46;;;;;;;1.37;1.37;;;13.40;99.90;;;;;;5080257;28;20852;-81
2024/03/16 10:40:16;;;;;;;0.30;0.20;;;13.40;99.90;;;;;;5092114;28;20477;-76
2024/03/16 10:42:48;;;;;;;0.30;0.20;;;13.30;99.90;;;;;;5092161;28;20459;-77
2024/03/16 10:45:16;;;;;;;0.30;0.20;;;13.40;99.90;;;;;;5093034;28;20465;-76
2024/03/16 10:47:43;;;;;;;0.30;0.20;;;13.30;99.90;;;;;;5083304;28;20459;-80
2024/03/16 10:50:12;;;;;;;0.90;0.90;;;13.30;99.90;;;;;;5095011;28;20480;-81
2024/03/16 10:52:41;;;;;;;0.87;0.87;;;13.30;99.90;;;;;;5096875;28;20442;-81
2024/03/16 10:55:22;;;;;;;1.47;1.37;;;13.30;99.90;;;;;;5093404;28;20916;-76
2024/03/16 10:57:49;;;;;;;0.60;0.60;;;13.30;99.90;;;;;;5085527;28;20487;-76
2024/03/16 11:00:29;;;;;;;0.30;0.20;;;13.30;99.90;;;;;;5092958;28;20432;-76
2024/03/16 11:05:54;;;;;;;0.40;0.20;;;13.30;99.90;;;;;;5077082;28;20444;-81
2024/03/16 11:08:24;;;;;;;3.83;3.73;;;13.30;99.90;;;;;;5086334;28;21027;-81
2024/03/16 11:10:50;;;;;;;4.00;2.67;;;13.30;99.90;;;;;;5079192;28;20651;-81
2024/03/16 11:13:16;;;;;;;2.33;1.50;;;13.30;99.90;;;;;;5085381;28;20440;-76
2024/03/16 11:15:49;;;;;;;0.30;0.20;;;13.40;99.90;;;;;;5090485;28;20420;-81
2024/03/16 11:18:21;;;;;;;0.30;0.20;;;13.40;99.90;;;;;;5085912;28;20452;-76
2024/03/16 11:20:50;;;;;;;0.67;0.67;;;13.40;99.90;;;;;;5083235;28;20925;-81
2024/03/16 11:23:29;;;;;;;0.30;0.30;;;13.40;99.90;;;;;;5083780;28;20875;-77
2024/03/16 11:25:56;;;;;;;0.70;0.70;;;13.50;99.90;;;;;;5085222;28;20437;-81
2024/03/16 11:28:23;;;;;;;2.53;2.33;;;13.50;99.90;;;;;;5088462;28;21044;-76
2024/03/16 11:30:52;;;;;;;1.03;1.03;;;13.50;99.90;;;;;;5090203;28;20464;-79
2024/03/16 11:33:23;;;;;;;0.40;0.37;;;13.50;99.90;;;;;;5084460;28;20477;-75
2024/03/16 11:35:51;;;;;;;0.30;0.30;;;13.50;99.90;;;;;;5083617;28;20855;-75
2024/03/16 11:38:21;;;;;;;0.47;0.47;;;13.60;99.90;;;;;;5084784;28;20445;-75
2024/03/16 11:40:48;;;;;;;1.20;1.10;;;13.60;99.90;;;;;;5086153;28;20524;-80
2024/03/16 11:43:14;;;;;;;2.30;1.60;;;13.70;99.90;;;;;;5084374;28;20956;-75
2024/03/16 11:45:41;;;;;;;0.70;0.70;;;13.70;99.90;;;;;;5083605;28;20445;-75
2024/03/16 11:48:10;;;;;;;0.60;0.50;;;13.70;99.90;;;;;;5084735;28;20429;-80
2024/03/16 11:50:36;;;;;;;0.37;0.30;;;13.80;99.90;;;;;;5084829;28;20416;-79
2024/03/16 11:53:06;;;;;;;2.23;0.70;;;13.70;99.90;;;;;;5084549;28;20850;-79
2024/03/16 11:55:32;;;;;;;1.57;1.03;;;13.80;99.90;;;;;;5083324;28;20914;-75
2024/03/16 11:58:05;;;;;;;0.40;0.40;;;13.70;99.90;;;;;;5079280;28;20494;-79
2024/03/16 12:00:32;;;;;;;0.30;0.20;;;13.80;99.90;;;;;;5061856;28;20445;-79
2024/03/16 12:03:04;;;;;;;2.83;2.73;;;13.90;99.90;;;;;;5069930;28;20528;-76
2024/03/16 12:05:31;;;;;;;0.40;0.40;;;13.90;99.90;;;;;;5081093;28;20519;-75
2024/03/16 12:07:58;;;;;;;2.50;2.40;;;14.00;99.90;;;;;;5083180;28;20429;-76
2024/03/16 12:10:25;;;;;;;1.00;0.67;;;14.00;99.90;;;;;;5076491;28;21075;-76
2024/03/16 12:12:51;;;;;;;0.30;0.20;;;14.10;99.90;;;;;;5082367;28;20976;-76
2024/03/16 12:15:19;;;;;;;1.70;1.60;;;14.10;99.90;;;;;;5083883;28;20413;-80
2024/03/16 12:17:47;;;;;;;0.40;0.40;;;14.10;99.90;;;;;;5082320;28;20806;-80
2024/03/16 12:20:16;;;;;;;0.30;0.30;;;14.10;99.90;;;;;;5081396;28;20457;-80
2024/03/16 12:22:49;;;;;;;0.30;0.20;;;14.10;99.90;;;;;;5082046;28;20808;-77
2024/03/16 12:25:15;;;;;;;0.40;0.37;;;14.20;99.90;;;;;;5082914;28;20421;-76
2024/03/16 12:27:43;;;;;;;0.30;0.30;;;14.20;99.90;;;;;;5082771;28;20424;-76
2024/03/16 12:30:12;;;;;;;1.17;1.17;;;14.20;99.90;;;;;;5082527;28;20497;-76
2024/03/16 12:32:38;;;;;;;0.73;0.73;;;14.30;99.90;;;;;;5082571;28;20441;-77
2024/03/16 12:35:04;;;;;;;0.30;0.20;;;14.30;99.90;;;;;;5084625;28;20584;-80
2024/03/16 12:37:30;;;;;;;0.30;0.20;;;14.40;99.90;;;;;;5084105;28;20559;-80
2024/03/16 12:39:57;;;;;;;2.33;2.23;;;14.40;99.90;;;;;;5084265;28;20465;-76
2024/03/16 12:42:24;;;;;;;1.57;1.57;;;14.50;99.90;;;;;;5083873;28;20475;-76
2024/03/16 12:44:50;;;;;;;0.30;0.30;;;14.50;99.90;;;;;;5085594;28;20432;-80
2024/03/16 12:47:15;;;;;;;0.40;0.40;;;14.50;99.90;;;;;;5083856;28;20421;-80
2024/03/16 12:49:44;;;;;;;1.73;1.63;;;14.60;99.90;;;;;;5085123;28;20461;-80
2024/03/16 12:52:11;;;;;;;5.27;3.77;;;14.60;99.90;;;;;;5083888;28;20271;-80
2024/03/16 12:54:37;;;;;;;0.50;0.50;;;14.60;99.90;;;;;;5085473;28;20417;-80
2024/03/16 12:57:03;;;;;;;8.30;1.80;;;14.60;99.90;;;;;;5083885;28;20459;-79